Latest Weather Observations for Narrabri

IDN60801

Issued at 9:35 am EST Wednesday 17 September 2014 (issued every 30 minutes, with the page automatically refreshed every 10 minutes)

About weather observations | Map of weather stations | Latest weather observations for NSW | Other Formats
Station Details ID: 054038 Name: NARRABRI AIRPORT AWS Lat: -30.32 Lon: 149.83 Height: 229.02 m
Data from the previous 72 hours. | See also: Recent months at Narrabri
Date/Time
EST
Temp
°C
App
Temp
°C
Dew
Point
Rel
Hum
%
Delta-T
°C
Wind Press
QNH
hPa
Press
MSL
hPa
Rain
since 9 am
mm
Dir
 
Spd
km/h
Gust
km/h
Spd
kts
Gust
kts
17/09:30am 18.0 14.0 2.7 36 7.1 S 13 26 7 14 1017.1 1016.7 0.0
17/09:00am 17.3 14.0 4.3 42 6.2 S 11 17 6 9 1017.3 1016.9 -
17/08:30am 16.4 12.8 5.1 47 5.4 S 13 19 7 10 1017.2 1016.8 -
17/08:00am 13.8 12.4 7.1 64 3.3 W 4 11 2 6 1017.2 1016.8 -
17/07:30am 10.3 8.8 7.0 80 1.6 S 4 11 2 6 1017.0 1016.6 -
17/07:00am 8.1 7.2 6.1 87 0.9 CALM 0 0 0 0 1016.6 1016.2 -
17/06:30am 4.7 2.5 3.4 91 0.5 S 4 9 2 5 1016.0 1015.7 -
17/06:00am 4.8 1.9 2.8 87 0.8 S 7 9 4 5 1015.7 1015.4 -
17/05:30am 6.0 3.9 3.7 85 1.0 SW 4 9 2 5 1015.6 1015.3 -
17/05:00am 7.2 4.6 4.2 81 1.3 ESE 7 11 4 6 1015.2 1014.9 -
17/04:30am 6.1 3.4 3.9 86 0.9 SE 7 11 4 6 1015.2 1014.9 -
17/04:00am 6.6 3.9 3.9 83 1.2 SSE 7 11 4 6 1015.2 1014.9 -
17/03:30am 6.5 4.0 3.7 82 1.2 SE 6 11 3 6 1014.9 1014.5 -
17/03:00am 7.7 4.6 3.4 74 1.9 SE 9 11 5 6 1014.9 1014.5 0.0
17/02:30am 6.8 3.6 2.9 76 1.6 SSE 9 15 5 8 1015.1 1014.8 -
17/02:00am 6.0 2.9 3.5 84 1.1 SSE 9 13 5 7 1015.4 1015.1 -
17/01:30am 6.7 5.3 3.3 79 1.4 SSE 0 0 0 0 1015.4 1015.1 -
17/01:00am 7.6 4.9 3.6 76 1.7 S 7 9 4 5 1015.3 1015.0 -
17/12:30am 8.5 7.1 3.4 70 2.2 CALM 0 6 0 3 1015.3 1015.0 -
17/12:00am 10.1 7.6 3.8 65 2.8 E 6 9 3 5 1015.4 1015.1 -
 
Date/Time
EST
Temp
°C
App
Temp
°C
Dew
Point
Rel
Hum
%
Delta-T
°C
Wind Press
QNH
hPa
Press
MSL
hPa
Rain
since 9 am
mm
Dir
 
Spd
km/h
Gust
km/h
Spd
kts
Gust
kts
16/11:30pm 11.6 8.0 4.8 63 3.1 E 13 17 7 9 1015.3 1015.0 -
16/11:00pm 10.2 6.5 4.4 67 2.6 E 13 13 7 7 1015.2 1014.9 -
16/10:30pm 11.4 8.4 3.9 60 3.4 E 9 9 5 5 1015.2 1014.9 -
16/10:00pm 10.4 7.0 4.1 65 2.8 E 11 15 6 8 1014.9 1014.5 -
16/09:30pm 12.5 9.6 4.5 58 3.7 ENE 9 11 5 6 1014.8 1014.4 -
16/09:00pm 11.6 8.7 2.6 54 3.9 S 7 9 4 5 1014.7 1014.3 -
16/08:30pm 15.2 12.1 3.4 45 5.4 S 9 11 5 6 1014.5 1014.1 -
16/08:00pm 15.2 12.3 2.7 43 5.7 S 7 9 4 5 1014.1 1013.7 -
16/07:30pm 15.2 13.6 2.7 43 5.7 CALM 0 0 0 0 1013.8 1013.4 -
16/07:00pm 16.3 13.4 2.7 40 6.2 W 7 13 4 7 1013.6 1013.2 -
16/06:30pm 17.2 13.2 2.8 38 6.7 W 13 17 7 9 1013.3 1012.9 -
16/06:00pm 18.9 14.5 2.7 34 7.6 W 15 20 8 11 1012.8 1012.4 -
16/05:30pm 21.2 15.1 2.5 29 8.9 W 24 32 13 17 1012.5 1012.1 -
16/05:00pm 22.4 15.8 2.0 26 9.7 W 26 35 14 19 1012.1 1011.7 -
16/04:30pm 23.1 16.0 1.4 24 10.2 W 28 35 15 19 1011.7 1011.3 -
16/04:00pm 23.9 16.5 2.1 24 10.5 W 30 39 16 21 1011.3 1011.0 -
16/03:30pm 24.4 16.9 1.3 22 11.0 W 30 43 16 23 1011.1 1010.7 -
16/02:30pm 24.6 18.6 3.3 25 10.5 W 24 30 13 16 1011.1 1010.7 0.0
16/02:09pm 24.2 17.0 2.9 25 10.4 W 30 48 16 26 1011.1 1010.7 0.0
16/02:00pm 24.1 16.5 2.9 25 10.4 W 32 46 17 25 1011.2 1010.8 0.0
16/01:30pm 24.6 18.1 2.7 24 10.7 W 26 37 14 20 1011.4 1011.1 0.0
16/01:00pm 24.2 17.0 2.9 25 10.4 WNW 30 43 16 23 1012.0 1011.6 0.0
16/12:30pm 23.7 16.9 3.1 26 10.1 W 28 37 15 20 1012.2 1011.8 0.0
16/12:00pm 23.8 18.1 4.7 29 9.6 WNW 24 35 13 19 1012.6 1012.2 0.0
16/11:30am 23.6 17.8 4.5 29 9.6 WNW 24 39 13 21 1013.0 1012.6 0.0
16/11:00am 23.1 17.8 5.1 31 9.1 NW 22 30 12 16 1013.3 1012.9 0.0
16/10:30am 22.3 17.3 4.4 31 8.9 NW 20 22 11 12 1013.5 1013.1 0.0
16/10:00am 21.5 15.9 3.2 30 8.8 NW 22 32 12 17 1013.5 1013.1 0.0
16/09:30am 21.5 14.7 3.2 30 8.8 NW 28 37 15 20 1013.5 1013.1 0.0
16/09:00am 21.4 14.2 3.1 30 8.8 NW 30 39 16 21 1013.3 1012.9 0.0
16/08:30am 22.0 15.0 4.1 31 8.8 N 30 37 16 20 1013.1 1012.7 0.0
16/08:00am 21.5 14.7 3.2 30 8.8 N 28 37 15 20 1012.7 1012.3 0.0
16/07:30am 19.8 13.4 3.1 33 7.9 N 26 39 14 21 1012.7 1012.3 0.0
16/07:00am 16.0 10.6 2.4 40 6.2 NNW 20 26 11 14 1012.7 1012.3 0.0
16/06:30am 15.2 10.5 1.0 38 6.2 NNW 15 19 8 10 1012.3 1011.9 0.0
16/06:00am 17.3 11.5 0.0 31 7.6 NNE 20 26 11 14 1011.4 1011.1 0.0
16/05:30am 17.1 11.0 0.3 32 7.4 NNE 22 28 12 15 1011.3 1011.0 0.0
16/05:00am 14.7 9.1 -0.2 36 6.3 NE 19 22 10 12 1011.4 1011.1 0.0
16/04:30am 15.7 10.1 -0.1 34 6.8 NNE 19 20 10 11 1011.5 1011.2 0.0
16/04:00am 17.1 12.3 0.3 32 7.4 NNE 15 19 8 10 1012.0 1011.6 0.0
16/03:30am 18.2 13.4 -0.1 29 8.0 WNW 15 20 8 11 1012.8 1012.4 0.0
16/03:08am 19.3 13.6 0.4 28 8.5 W 20 37 11 20 1012.6 1012.2 0.0
16/03:00am 14.0 7.5 4.6 53 4.4 WSW 28 37 15 20 1012.8 1012.4 0.0
16/02:30am 13.2 11.9 4.1 54 4.2 CALM 0 6 0 3 1011.4 1011.1 0.0
16/02:00am 13.3 11.3 2.2 47 4.9 NNE 2 6 1 3 1011.4 1011.1 0.0
16/01:30am 13.6 9.8 1.6 44 5.2 SSE 11 13 6 7 1011.8 1011.4 0.0
16/01:00am 12.6 10.3 2.5 50 4.5 E 4 7 2 4 1012.0 1011.6 0.0
16/12:30am 17.3 12.1 0.0 31 7.6 E 17 17 9 9 1012.3 1011.9 0.0
16/12:00am 17.6 12.5 0.7 32 7.5 E 17 19 9 10 1012.7 1012.3 0.0
 
Date/Time
EST
Temp
°C
App
Temp
°C
Dew
Point
Rel
Hum
%
Delta-T
°C
Wind Press
QNH
hPa
Press
MSL
hPa
Rain
since 9 am
mm
Dir
 
Spd
km/h
Gust
km/h
Spd
kts
Gust
kts
15/11:30pm 13.0 11.6 3.7 53 4.2 CALM 0 6 0 3 1013.0 1012.6 0.0
15/11:00pm 13.4 11.9 3.2 50 4.6 CALM 0 6 0 3 1013.3 1012.9 0.0
15/10:30pm 16.9 12.5 0.5 33 7.2 E 13 17 7 9 1013.2 1012.8 0.0
15/10:00pm 16.9 11.4 0.5 33 7.2 E 19 20 10 11 1013.4 1013.0 0.0
15/09:30pm 17.0 11.9 1.0 34 7.1 E 17 19 9 10 1013.5 1013.1 0.0
15/09:00pm 16.4 11.5 1.7 37 6.6 E 17 22 9 12 1013.6 1013.2 0.0
15/08:30pm 17.4 12.5 2.2 36 7.0 E 17 20 9 11 1013.8 1013.4 0.0
15/08:00pm 17.4 12.5 2.2 36 7.0 E 17 19 9 10 1013.7 1013.3 0.0
15/07:30pm 19.4 15.1 0.9 29 8.4 E 13 17 7 9 1013.6 1013.2 0.0
15/07:00pm 19.9 15.9 2.7 32 8.1 E 13 15 7 8 1013.5 1013.1 0.0
15/06:30pm 18.5 16.8 1.9 33 7.6 CALM 0 0 0 0 1013.3 1012.9 0.0
15/06:00pm 22.6 20.6 -0.2 22 10.4 CALM 0 0 0 0 1013.2 1012.8 0.0
15/05:30pm 24.6 22.2 -0.5 19 11.5 W 2 6 1 3 1012.9 1012.5 0.0
15/05:00pm 26.4 23.4 1.7 20 12.0 WSW 7 9 4 5 1012.8 1012.4 0.0
15/04:30pm 27.1 23.8 -0.9 16 13.0 W 6 11 3 6 1012.8 1012.4 0.0
15/04:00pm 26.9 23.6 -1.0 16 12.9 W 6 11 3 6 1012.7 1012.3 0.0
15/03:30pm 27.4 23.9 -1.5 15 13.3 NW 7 11 4 6 1012.8 1012.4 0.0
15/03:00pm 27.1 22.9 -0.9 16 13.0 NW 11 22 6 12 1013.1 1012.7 0.0
15/02:30pm 26.9 22.2 -1.9 15 13.1 NW 13 22 7 12 1013.4 1013.0 0.0
15/02:00pm 26.8 20.9 -1.1 16 12.9 WSW 20 28 11 15 1013.6 1013.2 0.0
15/01:30pm 26.7 21.2 -2.1 15 13.1 NNW 17 26 9 14 1014.2 1013.8 0.0
15/01:00pm 26.6 21.3 -0.4 17 12.6 NW 17 22 9 12 1014.6 1014.2 0.0
15/12:30pm 26.0 22.6 2.0 21 11.7 NNW 9 20 5 11 1015.1 1014.8 0.0
15/12:00pm 25.6 20.9 2.9 23 11.2 NNW 17 26 9 14 1015.6 1015.3 0.0
15/11:30am 25.2 21.1 6.4 30 9.8 NNW 17 22 9 12 1016.4 1016.0 0.0
15/11:00am 24.7 20.8 6.9 32 9.4 NNW 17 22 9 12 1016.9 1016.5 0.0
15/10:30am 24.5 20.3 7.6 34 9.0 NNW 19 28 10 15 1017.4 1017.0 0.0
15/10:00am 22.9 20.6 7.4 37 8.1 NNW 9 17 5 9 1017.7 1017.3 0.0
15/09:30am 20.6 18.2 6.9 41 7.0 S 9 15 5 8 1018.0 1017.6 0.0
15/09:00am 20.1 18.2 6.8 42 6.8 ENE 6 9 3 5 1018.3 1017.9 0.0
15/08:30am 18.0 15.7 5.6 44 6.1 SSE 7 9 4 5 1018.3 1017.9 0.0
15/08:00am 15.9 13.0 4.6 47 5.4 SE 9 13 5 7 1018.4 1018.0 0.0
15/07:30am 14.3 12.6 4.0 50 4.8 E 2 7 1 4 1018.2 1017.8 0.0
15/07:00am 12.1 9.4 5.5 64 3.1 SSE 9 13 5 7 1017.9 1017.5 0.0
15/06:30am 8.7 7.1 4.3 74 2.0 S 2 7 1 4 1017.6 1017.2 0.0
15/06:00am 9.0 5.7 4.4 73 2.1 SSE 11 15 6 8 1017.3 1016.9 0.0
15/05:30am 7.5 4.5 3.9 78 1.6 S 9 9 5 5 1017.2 1016.8 0.0
15/05:00am 8.9 6.4 4.9 76 1.8 ESE 7 15 4 8 1016.7 1016.3 0.0
15/04:30am 9.5 8.0 5.1 74 2.0 SSW 2 13 1 7 1016.8 1016.4 0.0
15/04:00am 8.3 5.9 4.5 77 1.7 E 6 9 3 5 1016.6 1016.2 0.0
15/03:30am 7.7 6.0 4.1 78 1.6 NNE 2 7 1 4 1016.7 1016.3 0.0
15/03:00am 9.5 7.1 5.1 74 2.0 SSE 7 13 4 7 1016.8 1016.4 0.0
15/02:30am 8.2 6.9 4.0 75 1.8 CALM 0 0 0 0 1017.1 1016.7 0.0
15/02:00am 8.7 7.1 4.5 75 1.9 SSW 2 7 1 4 1017.1 1016.7 0.0
15/01:30am 8.4 5.9 4.0 74 1.9 SW 6 7 3 4 1017.3 1016.9 0.0
15/01:00am 9.4 7.4 4.2 70 2.3 ESE 4 9 2 5 1017.6 1017.2 0.0
15/12:30am 9.5 8.2 4.3 70 2.3 CALM 0 0 0 0 1018.0 1017.6 0.0
15/12:00am 9.5 7.2 4.7 72 2.2 SW 6 9 3 5 1018.3 1017.9 0.0
 
Date/Time
EST
Temp
°C
App
Temp
°C
Dew
Point
Rel
Hum
%
Delta-T
°C
Wind Press
QNH
hPa
Press
MSL
hPa
Rain
since 9 am
mm
Dir
 
Spd
km/h
Gust
km/h
Spd
kts
Gust
kts
14/11:30pm 11.0 8.7 5.7 70 2.5 NE 7 11 4 6 1018.3 1017.9 0.0
14/11:00pm 11.5 8.6 4.9 64 3.0 E 9 15 5 8 1018.4 1018.0 0.0
14/10:30pm 11.1 9.1 4.6 64 3.0 SSE 4 9 2 5 1018.5 1018.1 0.0
14/10:00pm 12.9 10.3 4.3 56 4.0 ESE 7 11 4 6 1018.4 1018.0 0.0
14/09:30pm 15.5 12.1 6.0 53 4.6 E 13 17 7 9 1018.4 1018.0 0.0
14/09:00pm 15.2 11.2 6.5 56 4.3 E 17 19 9 10 1018.2 1017.8 0.0
14/08:30pm 15.9 12.6 6.3 53 4.7 E 13 15 7 8 1018.2 1017.8 0.0
14/08:00pm 14.5 11.4 5.6 55 4.3 E 11 13 6 7 1018.0 1017.6 0.0
14/07:30pm 16.4 14.0 5.1 47 5.4 ENE 7 9 4 5 1017.7 1017.3 0.0
14/07:00pm 16.4 13.9 3.8 43 5.9 S 6 7 3 4 1017.4 1017.0 0.0
14/06:30pm 19.0 16.5 4.0 37 7.2 S 6 6 3 3 1017.2 1016.8 0.0
14/06:00pm 20.8 18.8 4.4 34 8.0 W 4 9 2 5 1017.0 1016.6 0.0
14/05:30pm 24.1 21.8 5.5 30 9.5 WNW 7 11 4 6 1017.2 1016.8 0.0
14/05:00pm 25.1 21.5 4.8 27 10.3 WNW 13 17 7 9 1017.0 1016.6 0.0
14/04:30pm 25.2 22.7 4.9 27 10.3 SW 7 13 4 7 1016.8 1016.4 0.0
14/04:00pm 24.5 20.9 4.8 28 10.0 W 13 20 7 11 1017.0 1016.6 0.0
14/03:30pm 25.8 22.1 4.3 25 10.9 W 13 19 7 10 1017.1 1016.7 0.0
14/03:00pm 26.0 22.5 5.6 27 10.6 WNW 13 24 7 13 1017.4 1017.0 0.0
14/02:30pm 26.2 22.0 5.7 27 10.7 WNW 17 26 9 14 1017.6 1017.2 0.0
14/02:00pm 25.9 23.7 8.0 32 9.7 NW 9 19 5 10 1018.0 1017.6 0.0
14/01:30pm 25.0 22.1 8.1 34 9.1 WNW 13 24 7 13 1018.4 1018.0 0.0
14/01:00pm 25.3 21.2 8.7 35 9.0 WNW 20 32 11 17 1019.0 1018.7 0.0
14/12:30pm 24.7 21.2 10.9 42 7.8 NW 20 32 11 17 1019.6 1019.3 0.0
14/12:00pm 23.6 19.4 9.6 41 7.7 NW 22 30 12 16 1020.2 1019.9 0.0
14/11:30am 23.4 19.8 10.5 44 7.2 NNW 20 30 11 16 1021.0 1020.6 0.0
14/11:00am 22.5 18.5 10.6 47 6.6 N 22 33 12 18 1021.6 1021.2 0.0
14/10:30am 21.8 17.7 10.0 47 6.5 NNW 22 32 12 17 1022.0 1021.6 0.0
14/10:00am 20.8 15.9 10.0 50 5.9 N 26 37 14 20 1022.3 1021.9 0.0

Other Formats:

Comma delimited format used in spreadsheet applications
http://www.bom.gov.au/fwo/IDN60801/IDN60801.95734.axf

JavaScript Object Notation format (JSON) in row-major order
http://www.bom.gov.au/fwo/IDN60801/IDN60801.95734.json